LICB/CIY METAR and TAF weather

Enter ICAO airport designator
Station Type Date Time Source
LICB METAR 2019/08/24 16:50 UTC NOAA

LICB 241650Z 28006KT 240V320 9999 FEW035 28/18 Q1017


Station Type Date Time Source
LICB Decoded METAR 2019/08/24 16:50 UTC NOAA

Station name not available
Aug 24, 2019 - 12:50 PM EDT / 2019.08.24 1650 UTC
Wind: from the W (280 degrees) at 7 MPH (6 KT) (direction variable):0
Visibility: greater than 7 mile(s):0
Sky conditions: mostly clear
Temperature: 82 F (28 C)
Dew Point: 64 F (18 C)
Relative Humidity: 54%
Pressure (altimeter): 30.03 in. Hg (1017 hPa)
ob: LICB 241650Z 28006KT 240V320 9999 FEW035 28/18 Q1017
cycle: 17

Station Type Date Time Source
LICB TAF UTC NOAA

Error!

Example: see airport list